Time;durP1;ratioP1;P1;durP2;ratioP2;P2;SDS_P1;SDS_P2;PMS_P1;PMS_P2;Temp;Humidity;BMP_temperature;BMP_pressure;BME280_temperature;BME280_humidity;BME280_pressure;Samples;Min_cycle;Max_cycle;Signal;HPM_P1;HPM_P2
2021/05/03 00:01:48;;;;;;;5.65;4.95;;;6.70;99.90;;;6.41;81.47;101964.78;4039909;29;20036;-69
2021/05/03 00:03:49;;;;;;;5.78;5.18;;;6.70;99.90;;;6.24;81.78;101972.91;4041057;29;20085;-69
2021/05/03 00:05:56;;;;;;;5.65;5.07;;;6.60;99.90;;;6.09;82.81;101979.94;4041294;29;20063;-69
2021/05/03 00:07:57;;;;;;;7.85;6.13;;;6.50;99.90;;;6.24;82.76;101975.53;4041185;29;20037;-71
2021/05/03 00:09:58;;;;;;;7.90;5.97;;;6.50;99.90;;;6.25;82.37;101964.06;4040883;29;20086;-70
2021/05/03 00:11:59;;;;;;;6.25;5.63;;;6.60;99.90;;;6.11;82.32;101951.03;4040979;29;20029;-70
2021/05/03 00:14:01;;;;;;;6.55;5.85;;;6.50;99.90;;;6.21;83.05;101977.47;4041215;29;20036;-69
2021/05/03 00:16:02;;;;;;;8.30;6.13;;;6.50;99.90;;;6.28;82.64;101971.75;4039927;29;20052;-70
2021/05/03 00:18:03;;;;;;;5.82;5.05;;;6.50;99.90;;;6.29;81.97;101968.19;4040908;29;20045;-69
2021/05/03 00:20:05;;;;;;;5.90;5.40;;;6.50;99.90;;;6.16;82.26;101963.81;4040972;29;20044;-69
2021/05/03 00:22:06;;;;;;;6.88;6.10;;;6.50;99.90;;;5.93;82.85;101965.28;4039879;29;20077;-69
2021/05/03 00:24:08;;;;;;;7.30;6.15;;;6.40;99.90;;;5.85;83.31;101967.53;4041012;29;20454;-69
2021/05/03 00:26:11;;;;;;;6.38;5.75;;;6.20;99.90;;;5.85;83.97;101949.19;4040852;29;20115;-69
2021/05/03 00:28:12;;;;;;;6.57;5.90;;;6.20;99.90;;;5.98;84.10;101957.97;4040872;29;20029;-69
2021/05/03 00:30:15;;;;;;;6.93;5.40;;;6.20;99.90;;;5.96;84.32;101959.84;4053788;29;20583;-69
2021/05/03 00:32:16;;;;;;;7.03;6.28;;;6.20;99.90;;;6.06;83.91;101961.78;4049204;29;20037;-69
2021/05/03 00:34:17;;;;;;;8.00;6.10;;;6.30;99.90;;;6.00;83.81;101964.78;4040857;29;20099;-69
2021/05/03 00:36:18;;;;;;;6.63;5.95;;;6.20;99.90;;;5.98;83.48;101960.59;4052474;29;20036;-69
2021/05/03 00:38:19;;;;;;;6.80;6.15;;;6.20;99.90;;;5.97;83.73;101959.75;4041663;29;20493;-69
2021/05/03 00:40:20;;;;;;;6.95;5.93;;;6.20;99.90;;;5.96;84.01;101954.63;4043748;29;20029;-69
2021/05/03 00:42:21;;;;;;;7.20;6.43;;;6.20;99.90;;;5.92;84.24;101953.97;4042656;29;20062;-69
2021/05/03 00:44:24;;;;;;;7.63;6.95;;;6.20;99.90;;;5.80;84.83;101943.38;4027071;29;20152;-69
2021/05/03 00:46:26;;;;;;;7.70;6.30;;;6.10;99.90;;;5.93;84.87;101962.66;4058064;29;20423;-69
2021/05/03 00:48:27;;;;;;;6.22;5.63;;;6.10;99.90;;;5.91;84.89;101954.88;4043845;29;20044;-69
2021/05/03 00:50:29;;;;;;;7.40;6.57;;;6.10;99.90;;;5.97;84.42;101951.06;4042637;29;20064;-69
2021/05/03 00:52:30;;;;;;;7.07;6.38;;;6.10;99.90;;;5.96;84.45;101950.22;4043665;29;20397;-69
2021/05/03 00:54:31;;;;;;;7.78;6.78;;;6.20;99.90;;;5.97;83.50;101948.44;4043472;29;20025;-69
2021/05/03 00:56:32;;;;;;;9.45;6.10;;;6.20;99.90;;;5.95;83.94;101951.16;4042587;29;20044;-69
2021/05/03 00:58:34;;;;;;;7.47;6.60;;;6.20;99.90;;;5.83;83.78;101930.94;4043608;29;20456;-69
2021/05/03 01:00:35;;;;;;;7.20;6.50;;;6.20;99.90;;;5.86;83.93;101936.03;4042400;29;20037;-69
2021/05/03 01:02:38;;;;;;;6.78;6.15;;;6.20;99.90;;;5.86;84.40;101925.53;4042476;29;20025;-69
2021/05/03 01:04:39;;;;;;;7.22;6.53;;;6.10;99.90;;;5.96;83.42;101938.91;4043516;29;20528;-69
2021/05/03 01:06:39;;;;;;;7.65;6.85;;;6.20;99.90;;;5.81;84.27;101929.38;4043540;29;20033;-69
2021/05/03 01:08:40;;;;;;;6.88;6.18;;;6.20;99.90;;;5.93;83.64;101932.09;4043453;29;20037;-69
2021/05/03 01:10:41;;;;;;;7.15;6.47;;;6.20;99.90;;;5.93;83.20;101934.72;4042187;29;20420;-69
2021/05/03 01:12:43;;;;;;;6.43;5.82;;;6.20;99.90;;;5.85;83.58;101933.47;4042375;29;20033;-69
2021/05/03 01:14:44;;;;;;;7.03;6.32;;;6.20;99.90;;;5.75;84.23;101929.75;4042304;29;20189;-69
2021/05/03 01:16:44;;;;;;;7.70;6.90;;;6.10;99.90;;;5.95;83.72;101932.81;4043343;29;20044;-69
2021/05/03 01:18:45;;;;;;;6.95;6.25;;;6.10;99.90;;;5.99;83.18;101933.47;4041874;29;20033;-69
2021/05/03 01:20:46;;;;;;;10.13;6.65;;;6.20;99.90;;;5.94;82.97;101925.06;4042226;29;20520;-69
2021/05/03 01:22:47;;;;;;;7.80;7.00;;;6.10;99.90;;;5.99;82.77;101942.19;4026681;29;20047;-69
2021/05/03 01:24:48;;;;;;;7.32;6.63;;;6.20;99.90;;;5.84;83.38;101929.16;4043100;29;20045;-69
2021/05/03 01:26:49;;;;;;;8.35;6.47;;;6.10;99.90;;;5.82;82.93;101931.06;4043076;29;20032;-69
2021/05/03 01:28:50;;;;;;;7.18;6.47;;;6.10;99.90;;;5.61;84.20;101929.78;4045408;29;20037;-69
2021/05/03 01:30:51;;;;;;;7.18;6.47;;;6.00;99.90;;;5.56;84.96;101920.41;4058629;29;20035;-69
2021/05/03 01:32:52;;;;;;;6.60;6.00;;;6.00;99.90;;;5.53;84.63;101901.44;4046723;29;20065;-69
2021/05/03 01:34:53;;;;;;;7.85;6.13;;;6.00;99.90;;;5.53;84.92;101901.44;4042975;29;20386;-69
2021/05/03 01:36:54;;;;;;;7.15;6.43;;;5.90;99.90;;;5.73;84.47;101923.78;4054009;29;20103;-69
2021/05/03 01:38:54;;;;;;;7.50;6.60;;;5.90;99.90;;;5.70;83.65;101916.13;4042992;29;20041;-69
2021/05/03 01:40:55;;;;;;;7.40;6.70;;;6.00;99.90;;;5.77;83.64;101920.00;4041601;29;20040;-70
2021/05/03 01:42:57;;;;;;;7.38;6.68;;;5.90;99.90;;;5.79;83.25;101918.16;4042785;29;20063;-69
2021/05/03 01:45:03;;;;;;;7.32;6.63;;;6.00;99.90;;;5.81;83.12;101919.72;4043071;29;20037;-69
2021/05/03 01:47:04;;;;;;;8.70;7.13;;;5.90;99.90;;;5.84;82.97;101929.16;4041789;29;20036;-69
2021/05/03 01:49:08;;;;;;;10.63;8.02;;;6.00;99.90;;;5.73;83.86;101918.53;4042902;29;20044;-69
2021/05/03 01:51:09;;;;;;;;;;;5.90;99.90;;;5.68;83.34;101913.56;4041400;29;20040;-69
2021/05/03 01:53:11;;;;;;;7.60;6.80;;;5.90;99.90;;;5.71;83.82;101918.63;4042939;29;19912;-69
2021/05/03 01:55:13;;;;;;;7.38;6.47;;;6.00;99.90;;;5.61;83.87;101914.06;4042620;29;20116;-69
2021/05/03 01:57:18;;;;;;;6.95;6.30;;;5.90;99.90;;;5.62;84.00;101924.44;4042777;29;20084;-69
2021/05/03 01:59:19;;;;;;;7.20;6.50;;;5.90;99.90;;;5.54;84.23;101918.84;4042837;29;20111;-69
2021/05/03 02:01:20;;;;;;;7.82;7.03;;;5.90;99.90;;;5.56;83.39;101917.81;4041733;29;20045;-69
2021/05/03 02:03:28;;;;;;;7.28;6.55;;;5.80;99.90;;;5.43;83.84;101919.50;4041583;29;20037;-69
2021/05/03 02:05:30;;;;;;;8.52;7.05;;;5.80;99.90;;;5.45;84.34;101916.78;4042642;29;20033;-69
2021/05/03 02:07:31;;;;;;;7.35;5.70;;;5.80;99.90;;;5.48;83.88;101914.81;4042583;29;20112;-69
2021/05/03 02:09:32;;;;;;;7.50;5.80;;;5.70;99.90;;;5.43;84.05;101903.81;4042482;29;20540;-69
2021/05/03 02:11:33;;;;;;;7.95;6.90;;;5.70;99.90;;;5.37;84.24;101901.56;4042667;29;20037;-69
2021/05/03 02:13:35;;;;;;;7.50;6.80;;;5.70;99.90;;;5.39;84.31;101902.31;4042526;29;20037;-69
2021/05/03 02:15:37;;;;;;;8.70;7.43;;;5.70;99.90;;;5.46;84.42;101908.84;4041398;29;20073;-69
2021/05/03 02:17:37;;;;;;;8.38;7.38;;;5.70;99.90;;;5.49;83.50;101906.06;4042509;29;20033;-69
2021/05/03 02:19:39;;;;;;;8.68;6.85;;;5.70;99.90;;;5.47;83.27;101901.81;4042275;29;20037;-69
2021/05/03 02:21:39;;;;;;;7.43;6.63;;;5.70;99.90;;;5.45;83.95;101904.56;4042260;29;20077;-69
2021/05/03 02:23:40;;;;;;;8.35;7.05;;;5.70;99.90;;;5.48;83.78;101909.59;4042484;29;20393;-69
2021/05/03 02:25:41;;;;;;;7.25;6.55;;;5.60;99.90;;;5.40;84.10;101909.22;4042271;29;20025;-69
2021/05/03 02:27:42;;;;;;;8.75;6.65;;;5.70;99.90;;;5.41;83.93;101910.06;4042345;29;20056;-69
2021/05/03 02:29:43;;;;;;;8.45;6.80;;;5.60;99.90;;;5.34;84.45;101907.00;4050050;29;20475;-69
2021/05/03 02:31:44;;;;;;;7.93;6.30;;;5.60;99.90;;;5.40;83.87;101904.00;4042344;29;20132;-70
2021/05/03 02:33:45;;;;;;;7.32;6.63;;;5.70;99.90;;;5.36;83.50;101901.66;4042258;29;20028;-69
2021/05/03 02:35:46;;;;;;;7.05;6.45;;;5.60;99.90;;;5.29;83.94;101903.78;4045511;29;20480;-69
2021/05/03 02:37:57;;;;;;;7.55;6.68;;;5.50;99.90;;;5.36;83.38;101905.13;4048843;29;20061;-69
2021/05/03 02:39:57;;;;;;;7.35;6.65;;;5.60;99.90;;;5.28;83.75;101891.69;4041856;29;20033;-70
2021/05/03 02:41:58;;;;;;;7.78;6.97;;;5.50;99.90;;;5.27;83.73;101897.84;4042206;29;20028;-70
2021/05/03 02:44:00;;;;;;;7.07;6.38;;;5.50;99.90;;;5.28;83.76;101902.13;4042152;29;20029;-70
2021/05/03 02:46:01;;;;;;;8.02;7.22;;;5.50;99.90;;;5.19;83.24;101881.78;4041992;29;20096;-70
2021/05/03 02:48:03;;;;;;;7.82;7.05;;;5.50;99.90;;;5.03;83.86;101900.16;4042175;29;20036;-70
2021/05/03 02:50:05;;;;;;;7.72;6.97;;;5.50;99.90;;;5.09;84.09;101893.72;4040876;29;20077;-70
2021/05/03 02:52:06;;;;;;;9.02;7.68;;;5.40;99.90;;;5.06;84.48;101890.44;4042123;29;20084;-70
2021/05/03 02:54:08;;;;;;;6.80;6.07;;;5.40;99.90;;;5.04;84.48;101893.16;4040798;29;20021;-70
2021/05/03 02:56:09;;;;;;;7.30;6.60;;;5.40;99.90;;;5.08;83.86;101904.28;4040704;29;20112;-70
2021/05/03 02:58:10;;;;;;;7.82;7.13;;;5.30;99.90;;;5.09;84.06;101898.94;4041942;29;20065;-70
2021/05/03 03:00:24;;;;;;;7.10;6.40;;;5.40;99.90;;;5.11;84.07;101902.28;4041991;29;20468;-69
2021/05/03 03:02:24;;;;;;;7.40;6.70;;;5.40;99.90;;;5.09;83.97;101888.47;4041649;29;20032;-70
2021/05/03 03:04:25;;;;;;;8.25;6.90;;;5.30;99.90;;;5.13;84.12;101895.22;4042010;29;20047;-69
2021/05/03 03:06:26;;;;;;;8.02;7.07;;;5.40;99.90;;;5.13;84.28;101902.22;4041817;29;20021;-69
2021/05/03 03:08:27;;;;;;;8.10;6.85;;;5.40;99.90;;;5.05;84.94;101892.22;4041779;29;20032;-69
2021/05/03 03:10:29;;;;;;;8.65;7.35;;;5.30;99.90;;;5.08;84.70;101889.41;4040209;29;20626;-69
2021/05/03 03:12:31;;;;;;;8.55;7.32;;;5.30;99.90;;;5.12;84.95;101896.16;4040602;29;20128;-69
2021/05/03 03:14:32;;;;;;;8.43;7.63;;;5.40;99.90;;;5.19;84.79;101891.38;4040612;29;20517;-70
2021/05/03 03:16:34;;;;;;;8.05;7.28;;;5.40;99.90;;;5.25;84.15;101886.63;4041671;29;20032;-70
2021/05/03 03:18:35;;;;;;;8.68;7.78;;;5.40;99.90;;;5.13;85.04;101886.53;4041434;29;20057;-70
2021/05/03 03:20:36;;;;;;;9.40;7.40;;;5.50;99.90;;;5.21;84.97;101897.34;4040591;29;20025;-69
2021/05/03 03:22:38;;;;;;;8.60;7.70;;;5.40;99.90;;;5.25;84.92;101899.72;4041672;29;20021;-70
2021/05/03 03:24:40;;;;;;;8.55;7.70;;;5.50;99.90;;;5.33;84.51;101901.84;4040167;29;20401;-70
2021/05/03 03:26:41;;;;;;;9.60;7.18;;;5.50;99.90;;;5.29;84.39;101889.88;4041445;29;20112;-70
2021/05/03 03:28:42;;;;;;;8.05;7.25;;;5.50;99.90;;;5.23;84.46;101885.00;4042945;29;20036;-70
2021/05/03 03:30:43;;;;;;;7.93;7.13;;;5.50;99.90;;;5.21;84.70;101892.97;4055611;29;20056;-70
2021/05/03 03:32:45;;;;;;;8.82;7.53;;;5.50;99.90;;;5.15;84.88;101882.03;4046527;29;20029;-70
2021/05/03 03:34:46;;;;;;;9.70;8.10;;;5.50;99.90;;;5.19;84.22;101904.47;4041424;29;20029;-70
2021/05/03 03:36:47;;;;;;;8.77;7.88;;;5.50;99.90;;;5.11;84.23;101902.28;4052853;29;20025;-70
2021/05/03 03:38:48;;;;;;;8.57;7.65;;;5.40;99.90;;;5.00;84.67;101894.25;4041459;29;20389;-70
2021/05/03 03:40:49;;;;;;;8.50;7.60;;;5.40;99.90;;;4.93;85.00;101891.19;4040296;29;20462;-70
2021/05/03 03:42:50;;;;;;;8.70;7.82;;;5.30;99.90;;;4.94;84.77;101889.41;4041328;29;20029;-70
2021/05/03 03:44:51;;;;;;;7.90;7.20;;;5.30;99.90;;;4.99;85.13;101892.56;4041569;29;20037;-70
2021/05/03 03:46:52;;;;;;;7.85;7.15;;;5.30;99.90;;;5.03;84.77;101899.31;4041495;29;20061;-70
2021/05/03 03:48:53;;;;;;;8.77;7.10;;;5.30;99.90;;;5.02;84.62;101897.63;4041407;29;20032;-70
2021/05/03 03:50:54;;;;;;;8.15;7.35;;;5.30;99.90;;;5.09;84.10;101906.78;4040109;29;20032;-70
2021/05/03 03:52:54;;;;;;;8.07;7.28;;;5.20;99.90;;;5.09;84.59;101888.47;4040209;29;20045;-70
2021/05/03 03:54:55;;;;;;;8.27;7.40;;;5.30;99.90;;;4.96;84.78;101882.31;4039833;29;20531;-70
2021/05/03 03:56:57;;;;;;;9.43;7.95;;;5.30;99.90;;;4.97;85.15;101902.28;4041238;29;20064;-70
2021/05/03 03:58:57;;;;;;;8.85;7.93;;;5.30;99.90;;;4.97;85.62;101899.69;4041267;29;20064;-70
2021/05/03 04:00:58;;;;;;;9.27;7.65;;;5.20;99.90;;;5.04;84.75;101898.38;4041258;29;20033;-70
2021/05/03 04:03:00;;;;;;;8.70;7.85;;;5.30;99.90;;;5.00;84.79;101899.50;4041417;29;20032;-70
2021/05/03 04:07:37;;;;;;;8.70;7.03;;;5.30;99.90;;;5.03;83.76;101899.31;4040095;29;20111;-70
2021/05/03 04:09:53;;;;;;;8.85;7.80;;;5.30;99.90;;;5.04;82.86;101893.16;4041096;29;20112;-70
2021/05/03 04:12:17;;;;;;;8.77;7.85;;;5.20;99.90;;;5.10;83.03;101900.63;4041355;29;20040;-70
2021/05/03 04:25:40;;;;;;;8.52;7.72;;;5.10;99.90;;;4.77;84.81;101894.81;4014674;29;20428;-70
2021/05/03 04:27:41;;;;;;;9.02;7.70;;;5.00;99.90;;;4.75;84.72;101887.03;4042909;29;20052;-71
2021/05/03 04:29:42;;;;;;;10.13;7.70;;;5.10;99.90;;;4.80;84.77;101892.00;4052049;29;20130;-70
2021/05/03 04:31:43;;;;;;;9.25;8.25;;;5.10;99.90;;;4.84;83.84;101886.50;4056592;29;20517;-70
2021/05/03 04:33:45;;;;;;;8.48;7.20;;;5.10;99.90;;;4.71;84.19;101866.41;4044115;29;20059;-70
2021/05/03 04:35:45;;;;;;;8.73;7.85;;;5.00;99.90;;;4.78;83.84;101867.75;4031710;29;20568;-70
2021/05/03 04:37:46;;;;;;;9.85;8.40;;;5.10;99.90;;;4.76;83.73;101877.44;4049685;29;20036;-70
2021/05/03 04:39:47;;;;;;;9.60;7.60;;;5.10;99.90;;;4.75;83.03;101879.19;4043625;29;20101;-69
2021/05/03 04:41:48;;;;;;;9.30;8.40;;;5.00;99.90;;;4.70;83.77;101888.25;4042871;29;20444;-70
2021/05/03 04:43:49;;;;;;;10.85;9.27;;;5.00;99.90;;;4.79;83.67;101891.16;4044099;29;20032;-69
2021/05/03 04:45:50;;;;;;;8.65;7.80;;;5.00;99.90;;;4.82;84.03;101888.38;4043948;29;20040;-70
2021/05/03 04:47:51;;;;;;;9.90;8.55;;;5.10;99.90;;;4.87;83.53;101888.94;4043838;29;20037;-70
2021/05/03 04:49:52;;;;;;;10.77;9.05;;;5.10;99.90;;;4.81;84.46;101883.22;4044147;29;20033;-70
2021/05/03 04:51:53;;;;;;;9.50;8.60;;;5.10;99.90;;;4.92;83.72;101881.66;4043945;29;20036;-70
2021/05/03 04:53:54;;;;;;;9.32;8.40;;;5.10;99.90;;;4.92;83.43;101881.66;4042609;29;20030;-70
2021/05/03 04:55:54;;;;;;;9.95;8.82;;;5.10;99.90;;;4.89;83.82;101886.22;4043526;29;20033;-70
2021/05/03 04:57:55;;;;;;;10.85;9.30;;;5.10;99.90;;;4.83;83.55;101870.91;4043827;29;20031;-70
2021/05/03 04:59:57;;;;;;;13.07;9.18;;;5.10;99.90;;;4.68;83.85;101890.13;4043741;29;20036;-70
2021/05/03 05:01:58;;;;;;;11.07;9.18;;;5.10;99.90;;;4.67;84.58;101891.03;4043788;29;20026;-70
2021/05/03 05:03:59;;;;;;;10.88;8.63;;;5.00;99.90;;;4.75;83.92;101894.06;4043269;29;20037;-70
2021/05/03 05:06:00;;;;;;;9.40;8.40;;;5.00;99.90;;;4.73;84.22;101896.75;4043784;29;20521;-70
2021/05/03 05:08:01;;;;;;;9.68;8.30;;;5.00;99.90;;;4.80;83.58;101884.16;4043718;29;20033;-70
2021/05/03 05:10:02;;;;;;;10.63;8.77;;;5.00;99.90;;;4.87;82.96;101891.53;4042126;29;20049;-69
2021/05/03 05:12:04;;;;;;;8.88;7.40;;;5.10;99.90;;;4.60;83.85;101881.91;4043310;29;20031;-70
2021/05/03 05:14:05;;;;;;;10.13;8.50;;;5.10;99.90;;;4.72;84.02;101894.25;4042366;29;20029;-70
2021/05/03 05:16:06;;;;;;;9.23;8.32;;;5.00;99.90;;;4.77;83.90;101897.41;4043579;29;20044;-70
2021/05/03 05:18:09;;;;;;;9.38;8.48;;;5.00;99.90;;;4.91;82.40;101900.03;4042215;29;20025;-70
2021/05/03 05:20:10;;;;;;;10.00;8.98;;;5.10;99.90;;;4.87;82.23;101898.53;4043329;29;20485;-70
2021/05/03 05:22:12;;;;;;;8.75;7.90;;;5.30;99.90;;;4.85;82.24;101896.03;4026831;29;20058;-70
2021/05/03 05:24:13;;;;;;;9.85;8.18;;;5.10;99.90;;;4.76;82.30;101906.19;4042830;29;20025;-70
2021/05/03 05:26:14;;;;;;;9.32;8.27;;;5.10;99.90;;;4.60;82.84;101903.63;4041370;29;20036;-70
2021/05/03 05:28:15;;;;;;;9.00;8.15;;;5.10;99.90;;;4.52;83.58;101892.78;4043161;29;20037;-69
2021/05/03 05:30:16;;;;;;;9.85;8.27;;;5.00;99.90;;;4.55;83.37;101902.19;4055610;29;20084;-69
2021/05/03 05:32:17;;;;;;;9.45;8.45;;;5.00;99.90;;;4.61;83.49;101912.31;4043024;29;20049;-69
2021/05/03 05:34:18;;;;;;;10.18;9.10;;;5.00;99.90;;;4.60;82.81;101890.56;4041861;29;20441;-69
2021/05/03 05:36:19;;;;;;;9.77;7.97;;;5.00;99.90;;;4.58;83.62;101897.66;4053334;29;20063;-69
2021/05/03 05:38:20;;;;;;;10.75;8.57;;;5.00;99.90;;;4.55;84.32;101912.66;4042026;29;20053;-69
2021/05/03 05:40:21;;;;;;;11.23;9.20;;;5.00;99.90;;;4.53;84.21;101918.00;4041724;29;20052;-70
2021/05/03 05:42:22;;;;;;;10.82;8.77;;;5.10;99.90;;;4.56;84.99;101909.13;4043025;29;20029;-69
2021/05/03 05:44:23;;;;;;;10.00;9.00;;;5.00;99.90;;;4.65;84.47;101898.13;4042942;29;20025;-70
2021/05/03 05:46:24;;;;;;;9.02;8.18;;;5.10;99.90;;;4.79;84.27;101900.78;4026443;29;20056;-71
2021/05/03 05:48:25;;;;;;;9.70;8.73;;;5.10;99.90;;;4.90;83.79;101895.75;4041803;29;20037;-71
2021/05/03 05:50:26;;;;;;;9.65;8.63;;;5.20;99.90;;;4.94;83.73;101894.63;4042914;29;20037;-71
2021/05/03 05:52:26;;;;;;;9.57;8.63;;;5.30;99.90;;;5.00;83.81;101900.34;4042531;29;20108;-71
2021/05/03 05:54:27;;;;;;;10.07;9.00;;;5.30;99.90;;;5.06;83.61;101900.91;4056461;29;20032;-71
2021/05/03 05:56:28;;;;;;;14.25;10.32;;;5.30;99.90;;;5.13;83.17;101905.69;4057127;29;20029;-72
2021/05/03 05:58:32;;;;;;;12.52;11.07;;;5.40;99.90;;;5.22;82.54;101902.50;4058035;29;20028;-72
2021/05/03 06:00:34;;;;;;;11.43;10.30;;;5.50;99.90;;;5.16;82.60;101887.19;4058132;29;20035;-72
2021/05/03 06:02:35;;;;;;;11.23;9.77;;;5.60;99.90;;;5.18;83.25;101890.53;4056772;29;20044;-72
2021/05/03 06:04:39;;;;;;;11.23;9.65;;;5.60;99.90;;;5.27;83.96;101902.22;4058003;29;20084;-72
2021/05/03 06:06:40;;;;;;;10.55;9.45;;;5.60;99.90;;;5.34;83.89;101900.91;4058145;29;20024;-72
2021/05/03 06:08:41;;;;;;;12.90;10.75;;;5.70;99.90;;;5.49;83.60;101898.19;4058151;29;20107;-72
2021/05/03 06:10:42;;;;;;;10.77;9.68;;;5.80;99.90;;;5.49;83.78;101907.81;4058079;29;20048;-72
2021/05/03 06:12:43;;;;;;;11.25;9.98;;;5.80;99.90;;;5.52;83.59;101897.16;4057966;29;20496;-72
2021/05/03 06:14:43;;;;;;;11.32;10.13;;;5.90;99.90;;;5.55;84.18;101908.25;4057942;29;20100;-72
2021/05/03 06:16:44;;;;;;;12.50;10.27;;;6.00;99.90;;;5.63;84.52;101910.41;4044155;29;20029;-70
2021/05/03 06:18:46;;;;;;;11.43;10.27;;;6.00;99.90;;;5.63;84.97;101899.09;4055015;29;20056;-70
2021/05/03 06:20:48;;;;;;;13.70;11.05;;;6.10;99.90;;;5.68;85.07;101912.72;4051725;29;20511;-70
2021/05/03 06:22:57;;;;;;;13.68;11.50;;;6.10;99.90;;;5.77;85.70;101913.00;4057509;29;20025;-70
2021/05/03 06:25:00;;;;;;;12.68;11.25;;;6.20;99.90;;;5.75;85.98;101899.19;4042936;29;20033;-71
2021/05/03 06:27:01;;;;;;;11.20;10.02;;;6.30;99.90;;;5.79;86.12;101905.91;4041867;29;20093;-71
2021/05/03 06:29:02;;;;;;;13.27;11.63;;;6.20;99.90;;;5.85;86.65;101902.94;4045789;29;20041;-71
2021/05/03 06:31:03;;;;;;;10.75;9.65;;;6.30;99.90;;;5.96;87.04;101907.47;4056171;29;20504;-71
2021/05/03 06:33:04;;;;;;;13.05;10.82;;;6.40;99.90;;;6.02;86.92;101897.47;4042795;29;20037;-70
2021/05/03 06:35:06;;;;;;;14.13;10.55;;;6.40;99.90;;;6.22;86.74;101914.50;4040323;29;20115;-72
2021/05/03 06:37:07;;;;;;;12.23;10.93;;;6.60;99.90;;;6.27;86.92;101912.44;4052182;29;20033;-72
2021/05/03 06:39:08;;;;;;;12.75;11.00;;;6.60;99.90;;;6.39;87.48;101911.59;4041553;29;20029;-71
2021/05/03 06:41:09;;;;;;;12.52;11.25;;;6.70;99.90;;;6.48;87.68;101908.38;4041749;29;20032;-71
2021/05/03 06:43:10;;;;;;;13.95;11.93;;;6.90;99.90;;;6.54;88.22;101904.53;4041751;29;20028;-72
2021/05/03 06:45:12;;;;;;;14.85;11.40;;;7.00;99.90;;;6.60;88.55;101904.13;4041691;29;20033;-72
2021/05/03 06:47:16;;;;;;;11.55;10.15;;;7.10;99.90;;;6.64;88.50;101900.34;4060479;29;20092;-71
2021/05/03 06:49:16;;;;;;;12.15;10.93;;;7.20;99.90;;;6.83;88.62;101910.44;4071551;29;20025;-72
2021/05/03 06:51:17;;;;;;;11.90;10.52;;;7.30;99.90;;;6.89;88.35;101904.78;4053903;29;20044;-72
2021/05/03 06:53:18;;;;;;;16.05;11.45;;;7.30;99.90;;;6.97;88.92;101892.81;4041829;29;20037;-72
2021/05/03 06:55:20;;;;;;;11.95;10.65;;;7.40;99.90;;;7.15;88.64;101898.59;4060254;29;20039;-72
2021/05/03 06:57:21;;;;;;;13.30;10.70;;;7.50;99.90;;;7.27;88.23;101908.25;4044531;29;20039;-72
2021/05/03 06:59:23;;;;;;;14.63;10.50;;;7.60;99.90;;;7.34;88.52;101901.63;4041914;29;20071;-72
2021/05/03 07:01:24;;;;;;;12.13;10.70;;;7.70;99.90;;;7.38;88.62;101897.84;4041501;29;20033;-72
2021/05/03 07:03:24;;;;;;;10.40;9.35;;;7.80;99.90;;;7.43;88.80;101897.53;4041446;29;20084;-72
2021/05/03 07:05:27;;;;;;;12.00;10.90;;;7.90;99.90;;;7.52;88.88;101904.75;4041809;29;20508;-72
2021/05/03 07:07:28;;;;;;;10.65;9.55;;;7.90;99.90;;;7.62;88.82;101901.34;4041575;29;20576;-72
2021/05/03 07:09:29;;;;;;;10.95;9.85;;;8.10;99.90;;;7.78;88.07;101901.97;4041574;29;20029;-71
2021/05/03 07:11:31;;;;;;;11.68;10.48;;;8.20;99.90;;;7.91;87.89;101908.97;4041553;29;20118;-71
2021/05/03 07:13:32;;;;;;;11.65;9.90;;;8.20;99.90;;;8.05;87.45;101900.91;4044132;29;20065;-72
2021/05/03 07:15:32;;;;;;;10.77;9.73;;;8.30;99.90;;;8.10;87.17;101894.38;4056796;29;20028;-70
2021/05/03 07:17:33;;;;;;;10.30;9.27;;;8.50;99.90;;;8.23;86.86;101907.44;4056790;29;20036;-70
2021/05/03 07:19:36;;;;;;;11.35;10.23;;;8.60;99.90;;;8.32;86.77;101893.66;4057003;29;20485;-70
2021/05/03 07:21:38;;;;;;;10.80;9.55;;;8.70;99.90;;;8.34;86.81;101883.88;4057171;29;20029;-70
2021/05/03 07:23:39;;;;;;;10.68;9.57;;;8.80;99.90;;;8.40;86.99;101888.66;4055898;29;20112;-70
2021/05/03 07:25:40;;;;;;;10.32;8.63;;;8.90;99.90;;;8.49;87.27;101885.34;4056832;29;20032;-70
2021/05/03 07:27:41;;;;;;;10.60;9.57;;;8.90;99.90;;;8.61;87.07;101889.69;4055863;29;20088;-70
2021/05/03 07:29:42;;;;;;;10.80;9.50;;;9.00;99.90;;;8.67;87.73;101891.03;4056687;29;20085;-70
2021/05/03 07:31:43;;;;;;;10.75;9.60;;;9.10;99.90;;;8.78;87.49;101889.25;4054449;29;20041;-70
2021/05/03 07:33:44;;;;;;;10.20;8.90;;;9.20;99.90;;;8.73;87.49;101893.19;4041556;29;20037;-70
2021/05/03 07:35:45;;;;;;;10.13;9.05;;;9.30;99.90;;;8.87;87.69;101888.56;4045552;29;20072;-70
2021/05/03 07:37:47;;;;;;;10.35;8.65;;;9.30;99.90;;;8.92;87.43;101893.47;4048664;29;20516;-70
2021/05/03 07:39:48;;;;;;;11.23;9.65;;;9.40;99.90;;;9.06;86.97;101897.69;4041129;29;20040;-70
2021/05/03 07:41:49;;;;;;;11.45;9.63;;;9.50;99.90;;;9.14;86.69;101892.69;4041337;29;20040;-70
2021/05/03 07:43:50;;;;;;;10.98;9.77;;;9.70;99.90;;;9.33;84.90;101885.00;4041330;29;20029;-70
2021/05/03 07:45:51;;;;;;;10.73;9.63;;;9.70;99.90;;;9.40;85.02;101897.59;4041268;29;20029;-70
2021/05/03 07:47:52;;;;;;;10.25;9.15;;;9.90;99.90;;;9.54;83.53;101885.97;4040405;29;20033;-70
2021/05/03 07:49:53;;;;;;;10.60;8.65;;;10.10;99.90;;;9.73;81.26;101890.59;4041292;29;20033;-70
2021/05/03 07:51:54;;;;;;;10.50;9.20;;;10.20;99.90;;;9.84;81.42;101878.25;4041295;29;20393;-70
2021/05/03 07:53:56;;;;;;;12.00;9.57;;;10.30;99.90;;;9.92;81.42;101883.72;4041064;29;20041;-70
2021/05/03 07:55:57;;;;;;;10.15;9.15;;;10.50;99.90;;;10.03;80.01;101885.50;4040864;29;20040;-70
2021/05/03 07:57:59;;;;;;;10.50;8.95;;;10.50;99.90;;;10.14;77.80;101880.22;4041157;29;20489;-70
2021/05/03 08:00:00;;;;;;;8.32;7.53;;;10.60;99.90;;;10.30;77.14;101883.28;4041290;29;20516;-70
2021/05/03 08:02:01;;;;;;;13.27;9.75;;;10.70;99.90;;;10.32;76.52;101867.31;4041124;29;20029;-70
2021/05/03 08:04:03;;;;;;;10.85;8.90;;;11.00;99.90;;;10.58;74.85;101873.91;4039810;29;20465;-70
2021/05/03 08:06:05;;;;;;;9.90;8.48;;;11.00;99.90;;;10.66;74.28;101871.47;4039892;29;20398;-70
2021/05/03 08:08:06;;;;;;;9.68;8.68;;;11.20;99.90;;;10.81;73.31;101869.34;4041030;29;20048;-70
2021/05/03 08:10:08;;;;;;;10.02;8.73;;;11.30;99.90;;;10.89;71.98;101877.44;4039625;29;20021;-70
2021/05/03 08:12:09;;;;;;;10.38;9.13;;;11.40;99.90;;;10.69;69.83;101876.50;4040775;29;20116;-70
2021/05/03 08:14:15;;;;;;;10.60;9.45;;;11.50;99.90;;;10.66;69.96;101874.13;4041087;29;20033;-70
2021/05/03 08:16:18;;;;;;;12.55;9.25;;;11.50;99.90;;;10.63;70.74;101863.81;4040847;29;20029;-70
2021/05/03 08:18:19;;;;;;;9.65;8.65;;;11.50;99.90;;;10.80;69.46;101865.03;4040876;29;20557;-71
2021/05/03 08:20:21;;;;;;;11.23;9.50;;;11.60;99.90;;;10.96;69.83;101868.03;4039664;29;20049;-70
2021/05/03 08:22:22;;;;;;;10.13;8.98;;;11.60;99.90;;;11.03;69.60;101871.81;4039914;29;20108;-70
2021/05/03 08:24:22;;;;;;;9.75;8.63;;;11.70;99.90;;;11.17;69.58;101862.72;4040806;29;20057;-70
2021/05/03 08:26:24;;;;;;;9.55;8.55;;;11.80;99.90;;;11.27;70.15;101859.13;4040980;29;20025;-70
2021/05/03 08:28:25;;;;;;;9.93;8.38;;;11.90;99.90;;;11.37;68.68;101867.94;4041014;29;20563;-70
2021/05/03 08:30:26;;;;;;;12.23;8.98;;;12.00;99.90;;;11.58;67.59;101860.78;4055171;29;20049;-70
2021/05/03 08:32:27;;;;;;;10.38;9.23;;;12.20;99.90;;;11.66;67.61;101865.38;4048018;29;20059;-70
2021/05/03 08:34:28;;;;;;;10.20;9.15;;;12.30;99.90;;;11.77;67.63;101862.63;4041007;29;20029;-70
2021/05/03 08:36:28;;;;;;;11.15;8.88;;;12.40;99.90;;;11.83;67.68;101855.97;4052594;29;20040;-70
2021/05/03 08:38:30;;;;;;;9.68;8.45;;;12.50;99.90;;;11.75;66.57;101854.00;4040971;29;20025;-70
2021/05/03 08:40:32;;;;;;;10.90;9.00;;;12.60;99.90;;;11.88;66.41;101844.03;4040706;29;20065;-70
2021/05/03 08:42:33;;;;;;;10.40;8.63;;;12.70;99.90;;;11.86;66.38;101829.25;4040953;29;20021;-70
2021/05/03 08:44:34;;;;;;;9.77;8.32;;;12.80;99.90;;;11.99;65.00;101843.06;4039479;29;20076;-70
2021/05/03 08:46:40;;;;;;;9.63;8.07;;;12.80;99.90;;;11.88;64.82;101828.16;4039719;29;20497;-70